sensor_id;sensor_type;location;lat;lon;timestamp;P1;durP1;ratioP1;P2;durP2;ratioP2
83895;SDS011;74045;42.812;74.638;2024-02-21T00:02:19;62.33;;;24.38;;
83895;SDS011;74045;42.812;74.638;2024-02-21T00:04:45;62.42;;;25.90;;
83895;SDS011;74045;42.812;74.638;2024-02-21T00:07:11;69.35;;;23.80;;
83895;SDS011;74045;42.812;74.638;2024-02-21T00:09:37;63.53;;;23.00;;
83895;SDS011;74045;42.812;74.638;2024-02-21T00:12:02;70.70;;;24.75;;
83895;SDS011;74045;42.812;74.638;2024-02-21T00:14:30;69.20;;;24.73;;
83895;SDS011;74045;42.812;74.638;2024-02-21T00:16:56;68.57;;;23.90;;
83895;SDS011;74045;42.812;74.638;2024-02-21T00:19:22;53.28;;;20.63;;
83895;SDS011;74045;42.812;74.638;2024-02-21T00:21:48;53.17;;;21.47;;
83895;SDS011;74045;42.812;74.638;2024-02-21T00:24:13;60.88;;;22.55;;
83895;SDS011;74045;42.812;74.638;2024-02-21T00:26:39;53.70;;;21.42;;
83895;SDS011;74045;42.812;74.638;2024-02-21T00:29:05;57.63;;;22.58;;
83895;SDS011;74045;42.812;74.638;2024-02-21T00:31:30;58.28;;;21.38;;
83895;SDS011;74045;42.812;74.638;2024-02-21T00:33:56;49.03;;;19.77;;
83895;SDS011;74045;42.812;74.638;2024-02-21T00:36:23;48.17;;;20.58;;
83895;SDS011;74045;42.812;74.638;2024-02-21T00:38:49;46.38;;;18.02;;
83895;SDS011;74045;42.812;74.638;2024-02-21T00:41:15;52.60;;;18.77;;
83895;SDS011;74045;42.812;74.638;2024-02-21T00:43:41;47.70;;;17.65;;
83895;SDS011;74045;42.812;74.638;2024-02-21T00:46:07;42.85;;;17.25;;
83895;SDS011;74045;42.812;74.638;2024-02-21T00:48:35;38.22;;;14.85;;
83895;SDS011;74045;42.812;74.638;2024-02-21T00:51:00;48.95;;;16.13;;
83895;SDS011;74045;42.812;74.638;2024-02-21T00:53:26;38.55;;;15.15;;
83895;SDS011;74045;42.812;74.638;2024-02-21T00:55:52;46.33;;;16.23;;
83895;SDS011;74045;42.812;74.638;2024-02-21T00:58:17;39.90;;;15.50;;
83895;SDS011;74045;42.812;74.638;2024-02-21T01:00:43;36.40;;;15.05;;
83895;SDS011;74045;42.812;74.638;2024-02-21T01:03:09;32.70;;;13.45;;
83895;SDS011;74045;42.812;74.638;2024-02-21T01:05:35;35.47;;;15.40;;
83895;SDS011;74045;42.812;74.638;2024-02-21T01:08:00;35.25;;;12.10;;
83895;SDS011;74045;42.812;74.638;2024-02-21T01:10:26;34.97;;;13.48;;
83895;SDS011;74045;42.812;74.638;2024-02-21T01:12:52;22.75;;;8.80;;
83895;SDS011;74045;42.812;74.638;2024-02-21T01:15:18;33.30;;;13.25;;
83895;SDS011;74045;42.812;74.638;2024-02-21T01:17:43;29.27;;;11.30;;
83895;SDS011;74045;42.812;74.638;2024-02-21T01:20:09;29.33;;;10.40;;
83895;SDS011;74045;42.812;74.638;2024-02-21T01:22:35;30.17;;;10.20;;
83895;SDS011;74045;42.812;74.638;2024-02-21T01:25:02;33.28;;;11.05;;
83895;SDS011;74045;42.812;74.638;2024-02-21T01:27:31;29.48;;;12.15;;
83895;SDS011;74045;42.812;74.638;2024-02-21T01:29:57;22.52;;;9.65;;
83895;SDS011;74045;42.812;74.638;2024-02-21T01:32:22;38.22;;;11.35;;
83895;SDS011;74045;42.812;74.638;2024-02-21T01:34:49;16.10;;;7.43;;
83895;SDS011;74045;42.812;74.638;2024-02-21T01:37:16;32.00;;;12.70;;
83895;SDS011;74045;42.812;74.638;2024-02-21T01:39:41;32.90;;;13.50;;
83895;SDS011;74045;42.812;74.638;2024-02-21T01:42:07;46.60;;;17.80;;
83895;SDS011;74045;42.812;74.638;2024-02-21T01:44:34;37.63;;;14.23;;
83895;SDS011;74045;42.812;74.638;2024-02-21T01:47:00;33.58;;;12.75;;
83895;SDS011;74045;42.812;74.638;2024-02-21T01:49:26;36.17;;;13.40;;
83895;SDS011;74045;42.812;74.638;2024-02-21T01:51:52;30.52;;;14.27;;
83895;SDS011;74045;42.812;74.638;2024-02-21T01:54:18;35.85;;;14.07;;
83895;SDS011;74045;42.812;74.638;2024-02-21T01:56:46;31.38;;;13.10;;
83895;SDS011;74045;42.812;74.638;2024-02-21T01:59:12;28.38;;;10.05;;
83895;SDS011;74045;42.812;74.638;2024-02-21T02:01:40;29.50;;;11.48;;
83895;SDS011;74045;42.812;74.638;2024-02-21T02:04:07;31.35;;;11.77;;
83895;SDS011;74045;42.812;74.638;2024-02-21T02:06:33;38.13;;;12.82;;
83895;SDS011;74045;42.812;74.638;2024-02-21T02:09:00;31.30;;;14.55;;
83895;SDS011;74045;42.812;74.638;2024-02-21T02:11:26;37.88;;;14.35;;
83895;SDS011;74045;42.812;74.638;2024-02-21T02:13:51;40.17;;;14.50;;
83895;SDS011;74045;42.812;74.638;2024-02-21T02:16:17;31.80;;;12.18;;
83895;SDS011;74045;42.812;74.638;2024-02-21T02:18:43;30.25;;;13.40;;
83895;SDS011;74045;42.812;74.638;2024-02-21T02:21:13;37.75;;;14.57;;
83895;SDS011;74045;42.812;74.638;2024-02-21T02:24:06;39.10;;;16.38;;
83895;SDS011;74045;42.812;74.638;2024-02-21T02:26:32;38.50;;;15.38;;
83895;SDS011;74045;42.812;74.638;2024-02-21T02:28:58;47.65;;;18.40;;
83895;SDS011;74045;42.812;74.638;2024-02-21T02:31:27;58.95;;;21.13;;
83895;SDS011;74045;42.812;74.638;2024-02-21T02:33:53;59.05;;;22.65;;
83895;SDS011;74045;42.812;74.638;2024-02-21T02:36:18;61.70;;;21.15;;
83895;SDS011;74045;42.812;74.638;2024-02-21T02:38:44;60.22;;;23.15;;
83895;SDS011;74045;42.812;74.638;2024-02-21T02:41:10;56.20;;;18.77;;
83895;SDS011;74045;42.812;74.638;2024-02-21T02:43:36;57.92;;;19.77;;
83895;SDS011;74045;42.812;74.638;2024-02-21T02:46:02;45.05;;;16.63;;
83895;SDS011;74045;42.812;74.638;2024-02-21T02:48:29;46.97;;;16.13;;
83895;SDS011;74045;42.812;74.638;2024-02-21T02:50:55;37.95;;;16.05;;
83895;SDS011;74045;42.812;74.638;2024-02-21T02:53:20;45.00;;;17.92;;
83895;SDS011;74045;42.812;74.638;2024-02-21T02:55:46;42.70;;;17.05;;
83895;SDS011;74045;42.812;74.638;2024-02-21T02:58:12;41.22;;;16.38;;
83895;SDS011;74045;42.812;74.638;2024-02-21T03:00:38;49.13;;;19.52;;
83895;SDS011;74045;42.812;74.638;2024-02-21T03:03:04;45.38;;;17.15;;
83895;SDS011;74045;42.812;74.638;2024-02-21T03:05:30;42.72;;;17.38;;
83895;SDS011;74045;42.812;74.638;2024-02-21T03:07:56;35.25;;;17.42;;
83895;SDS011;74045;42.812;74.638;2024-02-21T03:10:21;38.88;;;16.77;;
83895;SDS011;74045;42.812;74.638;2024-02-21T03:12:47;40.33;;;16.90;;
83895;SDS011;74045;42.812;74.638;2024-02-21T03:15:13;42.92;;;17.27;;
83895;SDS011;74045;42.812;74.638;2024-02-21T03:17:39;44.78;;;19.88;;
83895;SDS011;74045;42.812;74.638;2024-02-21T03:20:06;62.20;;;21.17;;
83895;SDS011;74045;42.812;74.638;2024-02-21T03:22:35;60.00;;;22.65;;
83895;SDS011;74045;42.812;74.638;2024-02-21T03:25:04;48.33;;;21.52;;
83895;SDS011;74045;42.812;74.638;2024-02-21T03:27:31;65.00;;;24.15;;
83895;SDS011;74045;42.812;74.638;2024-02-21T03:29:57;65.97;;;24.73;;
83895;SDS011;74045;42.812;74.638;2024-02-21T03:32:23;55.42;;;21.33;;
83895;SDS011;74045;42.812;74.638;2024-02-21T03:34:48;56.45;;;22.55;;
83895;SDS011;74045;42.812;74.638;2024-02-21T03:37:14;61.55;;;22.65;;
83895;SDS011;74045;42.812;74.638;2024-02-21T03:39:40;64.95;;;25.05;;
83895;SDS011;74045;42.812;74.638;2024-02-21T03:42:06;70.25;;;25.65;;
83895;SDS011;74045;42.812;74.638;2024-02-21T03:44:32;68.70;;;24.02;;
83895;SDS011;74045;42.812;74.638;2024-02-21T03:47:01;70.47;;;24.08;;
83895;SDS011;74045;42.812;74.638;2024-02-21T03:49:27;56.10;;;20.80;;
83895;SDS011;74045;42.812;74.638;2024-02-21T03:51:52;46.03;;;19.65;;
83895;SDS011;74045;42.812;74.638;2024-02-21T03:54:19;48.88;;;18.85;;
83895;SDS011;74045;42.812;74.638;2024-02-21T03:56:44;39.83;;;16.33;;
83895;SDS011;74045;42.812;74.638;2024-02-21T03:59:12;33.25;;;15.40;;
83895;SDS011;74045;42.812;74.638;2024-02-21T04:01:38;48.17;;;17.15;;
83895;SDS011;74045;42.812;74.638;2024-02-21T04:04:04;59.70;;;19.60;;
83895;SDS011;74045;42.812;74.638;2024-02-21T04:06:30;53.60;;;18.30;;
83895;SDS011;74045;42.812;74.638;2024-02-21T04:08:56;62.10;;;21.67;;
83895;SDS011;74045;42.812;74.638;2024-02-21T04:11:22;52.75;;;17.63;;
83895;SDS011;74045;42.812;74.638;2024-02-21T04:13:48;36.75;;;14.95;;
83895;SDS011;74045;42.812;74.638;2024-02-21T04:16:15;37.60;;;14.63;;
83895;SDS011;74045;42.812;74.638;2024-02-21T04:18:42;36.08;;;15.48;;
83895;SDS011;74045;42.812;74.638;2024-02-21T04:21:08;32.97;;;14.25;;
83895;SDS011;74045;42.812;74.638;2024-02-21T04:23:34;38.88;;;13.98;;
83895;SDS011;74045;42.812;74.638;2024-02-21T04:26:00;31.55;;;13.25;;
83895;SDS011;74045;42.812;74.638;2024-02-21T04:28:26;29.58;;;12.35;;
83895;SDS011;74045;42.812;74.638;2024-02-21T04:30:52;44.80;;;16.88;;
83895;SDS011;74045;42.812;74.638;2024-02-21T04:33:18;46.17;;;16.58;;
83895;SDS011;74045;42.812;74.638;2024-02-21T04:35:43;38.58;;;16.58;;
83895;SDS011;74045;42.812;74.638;2024-02-21T04:38:09;43.15;;;15.75;;
83895;SDS011;74045;42.812;74.638;2024-02-21T04:40:35;42.25;;;17.55;;
83895;SDS011;74045;42.812;74.638;2024-02-21T04:43:00;37.90;;;15.55;;
83895;SDS011;74045;42.812;74.638;2024-02-21T04:45:26;36.05;;;14.80;;
83895;SDS011;74045;42.812;74.638;2024-02-21T04:47:52;47.83;;;16.67;;
83895;SDS011;74045;42.812;74.638;2024-02-21T04:50:17;40.83;;;16.40;;
83895;SDS011;74045;42.812;74.638;2024-02-21T04:52:43;45.42;;;16.42;;
83895;SDS011;74045;42.812;74.638;2024-02-21T04:55:09;40.28;;;17.33;;
83895;SDS011;74045;42.812;74.638;2024-02-21T04:57:35;43.20;;;15.98;;
83895;SDS011;74045;42.812;74.638;2024-02-21T05:00:00;38.17;;;16.38;;
83895;SDS011;74045;42.812;74.638;2024-02-21T05:02:26;42.63;;;16.27;;
83895;SDS011;74045;42.812;74.638;2024-02-21T05:04:52;34.45;;;14.80;;
83895;SDS011;74045;42.812;74.638;2024-02-21T05:07:18;38.72;;;14.80;;
83895;SDS011;74045;42.812;74.638;2024-02-21T05:09:45;33.42;;;14.38;;
83895;SDS011;74045;42.812;74.638;2024-02-21T05:12:11;34.45;;;14.80;;
83895;SDS011;74045;42.812;74.638;2024-02-21T05:14:37;40.42;;;15.60;;
83895;SDS011;74045;42.812;74.638;2024-02-21T05:17:03;36.38;;;13.95;;
83895;SDS011;74045;42.812;74.638;2024-02-21T05:19:29;38.47;;;15.02;;
83895;SDS011;74045;42.812;74.638;2024-02-21T05:21:55;35.30;;;13.55;;
83895;SDS011;74045;42.812;74.638;2024-02-21T05:24:21;31.48;;;11.93;;
83895;SDS011;74045;42.812;74.638;2024-02-21T05:26:46;43.47;;;15.48;;
83895;SDS011;74045;42.812;74.638;2024-02-21T05:29:12;42.20;;;15.90;;
83895;SDS011;74045;42.812;74.638;2024-02-21T05:34:16;62.03;;;23.63;;
83895;SDS011;74045;42.812;74.638;2024-02-21T05:36:42;55.88;;;22.08;;
83895;SDS011;74045;42.812;74.638;2024-02-21T05:39:07;55.65;;;22.17;;
83895;SDS011;74045;42.812;74.638;2024-02-21T05:41:33;54.90;;;21.83;;
83895;SDS011;74045;42.812;74.638;2024-02-21T05:43:59;57.70;;;23.20;;
83895;SDS011;74045;42.812;74.638;2024-02-21T05:46:24;57.58;;;24.45;;
83895;SDS011;74045;42.812;74.638;2024-02-21T05:48:50;60.30;;;24.30;;
83895;SDS011;74045;42.812;74.638;2024-02-21T05:51:16;52.75;;;21.67;;
83895;SDS011;74045;42.812;74.638;2024-02-21T05:53:42;49.75;;;20.80;;
83895;SDS011;74045;42.812;74.638;2024-02-21T05:56:13;46.40;;;20.27;;
83895;SDS011;74045;42.812;74.638;2024-02-21T05:58:39;43.13;;;19.52;;
83895;SDS011;74045;42.812;74.638;2024-02-21T06:01:05;47.00;;;19.73;;
83895;SDS011;74045;42.812;74.638;2024-02-21T06:03:34;46.17;;;19.15;;
83895;SDS011;74045;42.812;74.638;2024-02-21T06:06:03;40.55;;;17.15;;
83895;SDS011;74045;42.812;74.638;2024-02-21T06:08:31;50.95;;;18.98;;
83895;SDS011;74045;42.812;74.638;2024-02-21T06:10:57;52.60;;;21.85;;
83895;SDS011;74045;42.812;74.638;2024-02-21T06:13:25;53.17;;;20.42;;
83895;SDS011;74045;42.812;74.638;2024-02-21T06:15:52;54.97;;;22.83;;
83895;SDS011;74045;42.812;74.638;2024-02-21T06:18:18;57.08;;;24.10;;
83895;SDS011;74045;42.812;74.638;2024-02-21T06:20:44;55.22;;;21.58;;
83895;SDS011;74045;42.812;74.638;2024-02-21T06:23:11;59.45;;;21.45;;
83895;SDS011;74045;42.812;74.638;2024-02-21T06:25:38;58.53;;;21.85;;
83895;SDS011;74045;42.812;74.638;2024-02-21T06:28:04;49.72;;;22.58;;
83895;SDS011;74045;42.812;74.638;2024-02-21T06:30:30;54.80;;;22.33;;
83895;SDS011;74045;42.812;74.638;2024-02-21T06:32:56;50.13;;;20.42;;
83895;SDS011;74045;42.812;74.638;2024-02-21T06:35:22;57.00;;;23.90;;
83895;SDS011;74045;42.812;74.638;2024-02-21T06:37:51;45.38;;;21.75;;
83895;SDS011;74045;42.812;74.638;2024-02-21T06:40:17;53.40;;;21.83;;
83895;SDS011;74045;42.812;74.638;2024-02-21T06:42:44;55.28;;;21.85;;
83895;SDS011;74045;42.812;74.638;2024-02-21T06:45:10;56.95;;;24.23;;
83895;SDS011;74045;42.812;74.638;2024-02-21T06:47:36;40.92;;;17.90;;
83895;SDS011;74045;42.812;74.638;2024-02-21T06:50:02;47.22;;;20.85;;
83895;SDS011;74045;42.812;74.638;2024-02-21T06:52:28;49.58;;;20.55;;
83895;SDS011;74045;42.812;74.638;2024-02-21T06:54:53;53.05;;;21.95;;
83895;SDS011;74045;42.812;74.638;2024-02-21T06:57:19;54.22;;;20.17;;
83895;SDS011;74045;42.812;74.638;2024-02-21T06:59:45;49.70;;;21.15;;
83895;SDS011;74045;42.812;74.638;2024-02-21T07:02:11;59.20;;;24.77;;
83895;SDS011;74045;42.812;74.638;2024-02-21T07:04:36;43.78;;;18.48;;
83895;SDS011;74045;42.812;74.638;2024-02-21T07:07:02;53.35;;;22.55;;
83895;SDS011;74045;42.812;74.638;2024-02-21T07:09:28;50.13;;;21.33;;
83895;SDS011;74045;42.812;74.638;2024-02-21T07:11:57;42.80;;;18.48;;
83895;SDS011;74045;42.812;74.638;2024-02-21T07:14:23;44.13;;;18.98;;
83895;SDS011;74045;42.812;74.638;2024-02-21T07:16:48;37.55;;;16.50;;
83895;SDS011;74045;42.812;74.638;2024-02-21T07:19:15;54.40;;;21.10;;
83895;SDS011;74045;42.812;74.638;2024-02-21T07:21:40;39.63;;;16.63;;
83895;SDS011;74045;42.812;74.638;2024-02-21T07:24:09;53.15;;;21.65;;
83895;SDS011;74045;42.812;74.638;2024-02-21T07:26:35;45.88;;;20.25;;
83895;SDS011;74045;42.812;74.638;2024-02-21T07:29:00;54.10;;;22.08;;
83895;SDS011;74045;42.812;74.638;2024-02-21T07:31:26;53.53;;;22.17;;
83895;SDS011;74045;42.812;74.638;2024-02-21T07:33:52;55.35;;;21.58;;
83895;SDS011;74045;42.812;74.638;2024-02-21T07:36:39;64.65;;;24.33;;
83895;SDS011;74045;42.812;74.638;2024-02-21T07:39:04;48.85;;;19.90;;
83895;SDS011;74045;42.812;74.638;2024-02-21T07:41:30;51.78;;;20.48;;
83895;SDS011;74045;42.812;74.638;2024-02-21T07:43:56;43.83;;;16.98;;
83895;SDS011;74045;42.812;74.638;2024-02-21T07:46:22;58.38;;;20.52;;
83895;SDS011;74045;42.812;74.638;2024-02-21T07:48:48;61.85;;;25.15;;
83895;SDS011;74045;42.812;74.638;2024-02-21T07:51:14;67.90;;;25.92;;
83895;SDS011;74045;42.812;74.638;2024-02-21T07:53:43;69.25;;;26.63;;
83895;SDS011;74045;42.812;74.638;2024-02-21T07:56:11;59.22;;;22.73;;
83895;SDS011;74045;42.812;74.638;2024-02-21T07:58:40;54.38;;;20.52;;
83895;SDS011;74045;42.812;74.638;2024-02-21T08:01:06;50.50;;;21.08;;
83895;SDS011;74045;42.812;74.638;2024-02-21T08:03:52;48.75;;;21.67;;
83895;SDS011;74045;42.812;74.638;2024-02-21T08:06:18;62.55;;;24.60;;
83895;SDS011;74045;42.812;74.638;2024-02-21T08:08:43;60.00;;;24.80;;
83895;SDS011;74045;42.812;74.638;2024-02-21T08:11:09;54.35;;;22.80;;
83895;SDS011;74045;42.812;74.638;2024-02-21T08:13:35;56.70;;;24.00;;
83895;SDS011;74045;42.812;74.638;2024-02-21T08:16:01;52.75;;;23.55;;
83895;SDS011;74045;42.812;74.638;2024-02-21T08:18:27;57.97;;;24.58;;
83895;SDS011;74045;42.812;74.638;2024-02-21T08:20:53;51.38;;;22.25;;
83895;SDS011;74045;42.812;74.638;2024-02-21T08:23:19;49.55;;;21.90;;
83895;SDS011;74045;42.812;74.638;2024-02-21T08:25:45;50.55;;;20.98;;
83895;SDS011;74045;42.812;74.638;2024-02-21T08:28:11;53.13;;;24.13;;
83895;SDS011;74045;42.812;74.638;2024-02-21T08:30:38;49.83;;;20.17;;
83895;SDS011;74045;42.812;74.638;2024-02-21T08:33:03;43.40;;;19.02;;
83895;SDS011;74045;42.812;74.638;2024-02-21T08:35:29;45.72;;;17.85;;
83895;SDS011;74045;42.812;74.638;2024-02-21T08:37:55;44.20;;;17.85;;
83895;SDS011;74045;42.812;74.638;2024-02-21T08:40:20;42.25;;;19.08;;
83895;SDS011;74045;42.812;74.638;2024-02-21T08:42:46;44.72;;;18.52;;
83895;SDS011;74045;42.812;74.638;2024-02-21T08:45:13;51.00;;;20.00;;
83895;SDS011;74045;42.812;74.638;2024-02-21T08:47:39;44.88;;;19.20;;
83895;SDS011;74045;42.812;74.638;2024-02-21T08:50:05;40.53;;;16.58;;
83895;SDS011;74045;42.812;74.638;2024-02-21T08:52:32;33.97;;;14.60;;
83895;SDS011;74045;42.812;74.638;2024-02-21T08:54:57;33.70;;;14.45;;
83895;SDS011;74045;42.812;74.638;2024-02-21T08:57:23;31.35;;;14.18;;
83895;SDS011;74045;42.812;74.638;2024-02-21T08:59:49;26.25;;;12.90;;
83895;SDS011;74045;42.812;74.638;2024-02-21T09:02:15;26.05;;;11.32;;
83895;SDS011;74045;42.812;74.638;2024-02-21T09:04:44;27.80;;;12.07;;
83895;SDS011;74045;42.812;74.638;2024-02-21T09:07:10;24.05;;;10.13;;
83895;SDS011;74045;42.812;74.638;2024-02-21T09:09:36;26.85;;;12.35;;
83895;SDS011;74045;42.812;74.638;2024-02-21T09:12:04;24.70;;;9.90;;
83895;SDS011;74045;42.812;74.638;2024-02-21T09:14:33;23.10;;;11.10;;
83895;SDS011;74045;42.812;74.638;2024-02-21T09:17:00;19.08;;;9.20;;
83895;SDS011;74045;42.812;74.638;2024-02-21T09:19:25;20.08;;;8.88;;
83895;SDS011;74045;42.812;74.638;2024-02-21T09:21:51;21.40;;;8.98;;
83895;SDS011;74045;42.812;74.638;2024-02-21T09:24:17;19.27;;;9.38;;
83895;SDS011;74045;42.812;74.638;2024-02-21T09:26:43;23.05;;;10.77;;
83895;SDS011;74045;42.812;74.638;2024-02-21T09:29:09;27.00;;;12.50;;
83895;SDS011;74045;42.812;74.638;2024-02-21T09:31:34;30.02;;;11.60;;
83895;SDS011;74045;42.812;74.638;2024-02-21T09:34:00;32.88;;;12.82;;
83895;SDS011;74045;42.812;74.638;2024-02-21T09:36:27;31.58;;;13.00;;
83895;SDS011;74045;42.812;74.638;2024-02-21T09:38:53;33.00;;;14.13;;
83895;SDS011;74045;42.812;74.638;2024-02-21T09:41:28;31.50;;;13.95;;
83895;SDS011;74045;42.812;74.638;2024-02-21T09:43:54;39.28;;;15.27;;
83895;SDS011;74045;42.812;74.638;2024-02-21T09:46:21;33.00;;;14.20;;
83895;SDS011;74045;42.812;74.638;2024-02-21T09:49:06;38.10;;;14.73;;
83895;SDS011;74045;42.812;74.638;2024-02-21T09:51:47;37.15;;;17.02;;
83895;SDS011;74045;42.812;74.638;2024-02-21T09:54:17;38.58;;;16.00;;
83895;SDS011;74045;42.812;74.638;2024-02-21T09:56:46;40.78;;;17.50;;
83895;SDS011;74045;42.812;74.638;2024-02-21T09:59:13;49.45;;;18.10;;
83895;SDS011;74045;42.812;74.638;2024-02-21T10:01:42;55.90;;;20.05;;
83895;SDS011;74045;42.812;74.638;2024-02-21T10:04:09;56.53;;;21.52;;
83895;SDS011;74045;42.812;74.638;2024-02-21T10:06:35;60.13;;;22.70;;
83895;SDS011;74045;42.812;74.638;2024-02-21T10:09:02;66.18;;;25.05;;
83895;SDS011;74045;42.812;74.638;2024-02-21T10:11:29;70.40;;;26.15;;
83895;SDS011;74045;42.812;74.638;2024-02-21T10:14:02;72.55;;;27.23;;
83895;SDS011;74045;42.812;74.638;2024-02-21T10:16:30;72.38;;;27.08;;
83895;SDS011;74045;42.812;74.638;2024-02-21T10:18:56;65.30;;;23.25;;
83895;SDS011;74045;42.812;74.638;2024-02-21T10:21:21;55.00;;;21.65;;
83895;SDS011;74045;42.812;74.638;2024-02-21T10:23:50;63.53;;;24.08;;
83895;SDS011;74045;42.812;74.638;2024-02-21T10:26:20;51.17;;;21.38;;
83895;SDS011;74045;42.812;74.638;2024-02-21T10:28:49;46.67;;;19.90;;
83895;SDS011;74045;42.812;74.638;2024-02-21T10:33:59;51.45;;;22.30;;
83895;SDS011;74045;42.812;74.638;2024-02-21T10:36:28;49.03;;;19.67;;
83895;SDS011;74045;42.812;74.638;2024-02-21T10:38:54;54.38;;;20.88;;
83895;SDS011;74045;42.812;74.638;2024-02-21T10:41:20;53.92;;;20.80;;
83895;SDS011;74045;42.812;74.638;2024-02-21T10:43:51;47.17;;;21.52;;
83895;SDS011;74045;42.812;74.638;2024-02-21T10:46:19;42.13;;;16.65;;
83895;SDS011;74045;42.812;74.638;2024-02-21T10:48:46;37.85;;;13.13;;
83895;SDS011;74045;42.812;74.638;2024-02-21T10:51:16;41.38;;;17.05;;
83895;SDS011;74045;42.812;74.638;2024-02-21T10:58:55;37.50;;;15.15;;
83895;SDS011;74045;42.812;74.638;2024-02-21T11:01:23;28.75;;;13.20;;
83895;SDS011;74045;42.812;74.638;2024-02-21T11:03:52;28.90;;;13.25;;
83895;SDS011;74045;42.812;74.638;2024-02-21T11:06:20;23.90;;;10.80;;
83895;SDS011;74045;42.812;74.638;2024-02-21T11:08:47;28.40;;;12.07;;
83895;SDS011;74045;42.812;74.638;2024-02-21T11:11:45;27.83;;;10.85;;
83895;SDS011;74045;42.812;74.638;2024-02-21T11:14:17;22.77;;;11.10;;
83895;SDS011;74045;42.812;74.638;2024-02-21T11:16:43;23.80;;;10.85;;
83895;SDS011;74045;42.812;74.638;2024-02-21T11:21:46;35.28;;;14.23;;
83895;SDS011;74045;42.812;74.638;2024-02-21T11:24:13;39.03;;;16.77;;
83895;SDS011;74045;42.812;74.638;2024-02-21T11:26:39;33.72;;;14.32;;
83895;SDS011;74045;42.812;74.638;2024-02-21T11:29:08;31.10;;;10.95;;
83895;SDS011;74045;42.812;74.638;2024-02-21T11:31:39;25.77;;;11.70;;
83895;SDS011;74045;42.812;74.638;2024-02-21T11:34:12;29.55;;;12.07;;
83895;SDS011;74045;42.812;74.638;2024-02-21T11:36:50;30.40;;;12.38;;
83895;SDS011;74045;42.812;74.638;2024-02-21T11:39:21;32.80;;;12.98;;
83895;SDS011;74045;42.812;74.638;2024-02-21T11:42:01;25.55;;;12.18;;
83895;SDS011;74045;42.812;74.638;2024-02-21T11:44:36;33.40;;;14.73;;
83895;SDS011;74045;42.812;74.638;2024-02-21T11:47:07;34.63;;;14.77;;
83895;SDS011;74045;42.812;74.638;2024-02-21T11:49:37;41.10;;;15.10;;
83895;SDS011;74045;42.812;74.638;2024-02-21T11:52:04;43.53;;;16.80;;
83895;SDS011;74045;42.812;74.638;2024-02-21T11:54:31;44.92;;;16.70;;
83895;SDS011;74045;42.812;74.638;2024-02-21T11:56:57;44.55;;;16.70;;
83895;SDS011;74045;42.812;74.638;2024-02-21T11:59:22;48.92;;;18.20;;
83895;SDS011;74045;42.812;74.638;2024-02-21T12:01:48;43.25;;;15.68;;
83895;SDS011;74045;42.812;74.638;2024-02-21T12:04:17;62.67;;;23.45;;
83895;SDS011;74045;42.812;74.638;2024-02-21T12:06:45;76.93;;;26.20;;
83895;SDS011;74045;42.812;74.638;2024-02-21T12:09:14;62.42;;;22.23;;
83895;SDS011;74045;42.812;74.638;2024-02-21T12:11:43;69.57;;;22.63;;
83895;SDS011;74045;42.812;74.638;2024-02-21T12:14:10;71.03;;;24.42;;
83895;SDS011;74045;42.812;74.638;2024-02-21T12:16:36;53.85;;;20.40;;
83895;SDS011;74045;42.812;74.638;2024-02-21T12:19:02;65.82;;;26.55;;
83895;SDS011;74045;42.812;74.638;2024-02-21T12:21:32;67.05;;;24.63;;
83895;SDS011;74045;42.812;74.638;2024-02-21T12:26:57;96.22;;;32.55;;
83895;SDS011;74045;42.812;74.638;2024-02-21T12:29:23;97.55;;;36.55;;
83895;SDS011;74045;42.812;74.638;2024-02-21T12:31:50;128.52;;;45.05;;
83895;SDS011;74045;42.812;74.638;2024-02-21T12:34:16;142.63;;;51.92;;
83895;SDS011;74045;42.812;74.638;2024-02-21T12:36:42;152.32;;;55.70;;
83895;SDS011;74045;42.812;74.638;2024-02-21T12:39:10;158.98;;;55.80;;
83895;SDS011;74045;42.812;74.638;2024-02-21T12:41:36;156.32;;;58.08;;
83895;SDS011;74045;42.812;74.638;2024-02-21T12:44:08;155.93;;;56.47;;
83895;SDS011;74045;42.812;74.638;2024-02-21T12:46:36;157.60;;;55.72;;
83895;SDS011;74045;42.812;74.638;2024-02-21T12:49:02;153.40;;;55.55;;
83895;SDS011;74045;42.812;74.638;2024-02-21T12:51:29;145.38;;;56.70;;
83895;SDS011;74045;42.812;74.638;2024-02-21T12:53:56;158.85;;;57.22;;
83895;SDS011;74045;42.812;74.638;2024-02-21T12:56:22;147.75;;;56.08;;
83895;SDS011;74045;42.812;74.638;2024-02-21T12:58:50;146.80;;;53.25;;
83895;SDS011;74045;42.812;74.638;2024-02-21T13:01:16;149.70;;;53.83;;
83895;SDS011;74045;42.812;74.638;2024-02-21T13:03:45;149.60;;;54.05;;
83895;SDS011;74045;42.812;74.638;2024-02-21T13:06:11;150.00;;;55.35;;
83895;SDS011;74045;42.812;74.638;2024-02-21T13:08:38;153.32;;;55.85;;
83895;SDS011;74045;42.812;74.638;2024-02-21T13:11:04;153.90;;;58.20;;
83895;SDS011;74045;42.812;74.638;2024-02-21T13:13:30;163.07;;;59.90;;
83895;SDS011;74045;42.812;74.638;2024-02-21T13:15:56;162.32;;;58.60;;
83895;SDS011;74045;42.812;74.638;2024-02-21T13:18:23;171.18;;;63.97;;
83895;SDS011;74045;42.812;74.638;2024-02-21T13:20:48;166.05;;;59.35;;
83895;SDS011;74045;42.812;74.638;2024-02-21T13:23:14;195.98;;;74.43;;
83895;SDS011;74045;42.812;74.638;2024-02-21T13:25:40;302.15;;;94.78;;
83895;SDS011;74045;42.812;74.638;2024-02-21T13:28:06;391.35;;;114.30;;
83895;SDS011;74045;42.812;74.638;2024-02-21T13:30:32;389.83;;;112.00;;
83895;SDS011;74045;42.812;74.638;2024-02-21T13:32:58;326.40;;;104.32;;
83895;SDS011;74045;42.812;74.638;2024-02-21T13:35:23;261.17;;;88.95;;
83895;SDS011;74045;42.812;74.638;2024-02-21T13:37:49;219.05;;;73.88;;
83895;SDS011;74045;42.812;74.638;2024-02-21T13:40:15;200.57;;;68.60;;
83895;SDS011;74045;42.812;74.638;2024-02-21T13:42:41;192.65;;;70.32;;
83895;SDS011;74045;42.812;74.638;2024-02-21T13:45:08;180.82;;;65.45;;
83895;SDS011;74045;42.812;74.638;2024-02-21T13:47:34;145.45;;;55.33;;
83895;SDS011;74045;42.812;74.638;2024-02-21T13:50:02;149.82;;;58.45;;
83895;SDS011;74045;42.812;74.638;2024-02-21T13:52:30;181.55;;;61.50;;
83895;SDS011;74045;42.812;74.638;2024-02-21T13:54:56;162.70;;;58.38;;
83895;SDS011;74045;42.812;74.638;2024-02-21T13:57:22;148.02;;;55.20;;
83895;SDS011;74045;42.812;74.638;2024-02-21T13:59:48;138.27;;;49.42;;
83895;SDS011;74045;42.812;74.638;2024-02-21T14:02:14;140.27;;;51.97;;
83895;SDS011;74045;42.812;74.638;2024-02-21T14:04:39;141.07;;;52.72;;
83895;SDS011;74045;42.812;74.638;2024-02-21T14:07:05;129.75;;;46.58;;
83895;SDS011;74045;42.812;74.638;2024-02-21T14:09:31;131.52;;;48.00;;
83895;SDS011;74045;42.812;74.638;2024-02-21T14:12:00;126.00;;;48.88;;
83895;SDS011;74045;42.812;74.638;2024-02-21T14:14:26;139.48;;;49.53;;
83895;SDS011;74045;42.812;74.638;2024-02-21T14:16:51;140.13;;;49.45;;
83895;SDS011;74045;42.812;74.638;2024-02-21T14:19:17;133.90;;;47.25;;
83895;SDS011;74045;42.812;74.638;2024-02-21T14:21:44;136.90;;;51.35;;
83895;SDS011;74045;42.812;74.638;2024-02-21T14:24:10;153.63;;;56.65;;